Zakirovskiy Airport

Jump to: basic info | weather | comments

Related pages: nearby airports | nearby navaids

Basic information (top)

Location: lon 43.448002, lat 77.049599, elev 2,038 ft / 621 m msl
Status: small_airport

Weather (top)

Current conditions for Almaty Airport 6nm (11km) S (rec'd 2014/04/16 13:00Z):

UAAA 161300Z 04003MPS 9999 FEW100 SCT200 10/M06 Q1023 88CLRD65 NOSIG

Airport forecast for Almaty Airport 6nm (11km) S (rec'd 2014/04/16 12:25Z):

TAF COR UAAA 161100Z 1612/1712 16005MPS 3000 BR FU NSC TX14/1709Z TN02/1701Z 
      TEMPO 1614/1702 0800 
      BECMG 1704/1705 04007MPS 9999 NSW

Latest comments (top)

No comments yet for Zakirovskiy Airport

More... (top)

See also NOTAMs and nearby airports and navaids, or visit the Zakirovskiy Airport page at the main OurAirports website..